CST,Max TemperatureF,Mean TemperatureF,Min TemperatureF,Max Dew PointF,MeanDew PointF,Min DewpointF,Max Humidity, Mean Humidity, Min Humidity, Max Sea Level PressureIn, Mean Sea Level PressureIn, Min Sea Level PressureIn, Max VisibilityMiles, Mean VisibilityMiles, Min VisibilityMiles, Max Wind SpeedMPH, Mean Wind SpeedMPH, Max Gust SpeedMPH,PrecipitationIn, CloudCover, Events, WindDirDegrees
2011-11-1,68,50,32,45,36,28,93,65,40,30.15,30.10,30.02,10,9,2,13,5,21,0.00,0,,140
2011-11-2,64,57,50,45,38,32,72,49,39,30.08,30.02,29.93,10,10,10,17,8,23,0.00,2,Thunderstorm,174
2011-11-3,50,47,44,43,42,39,87,84,76,30.10,29.98,29.92,10,10,4,23,16,33,0.29,7,Rain,13
2011-11-4,53,42,32,37,33,28,93,70,38,30.32,30.26,30.17,10,8,0,9,4,,0.00,1,Fog,28
2011-11-5,59,46,32,34,31,27,87,62,36,30.27,30.19,30.07,10,10,10,13,7,18,0.00,0,,124
2011-11-6,59,50,42,45,40,30,76,64,55,30.09,30.04,30.01,10,10,10,23,11,31,0.00,3,,164
2011-11-7,55,52,50,50,46,43,82,77,67,30.22,30.18,30.12,10,8,4,8,2,,0.00,6,Rain,130
2011-11-8,55,50,46,52,46,43,88,85,82,30.09,29.99,29.91,10,6,1,17,8,22,0.75,8,Rain,35
2011-11-9,59,48,37,54,42,32,88,82,72,29.98,29.71,29.54,10,8,3,23,11,37,0.10,8,Rain,226
2011-11-10,41,36,32,32,29,28,87,80,61,30.03,29.99,29.97,10,10,3,16,8,24,0.01,4,Rain-Snow,245
2011-11-11,46,37,28,30,28,25,87,74,50,30.04,29.94,29.77,10,10,7,15,5,18,0.00,1,,172
2011-11-12,60,46,32,37,33,28,93,65,34,29.83,29.77,29.67,10,10,10,17,6,30,0.00,0,,169
2011-11-13,73,63,53,52,43,19,77,58,20,29.57,29.45,29.33,10,10,10,24,17,37,0.00,2,,185
2011-11-14,53,44,35,43,37,30,87,73,57,29.68,29.62,29.56,10,10,7,6,2,,0.00,3,Rain,120
2011-11-15,62,46,30,45,36,27,93,69,39,29.80,29.75,29.69,10,6,0,17,3,25,0.00,1,Fog,187
2011-11-16,42,37,32,28,15,-4,64,43,15,30.16,30.03,29.87,10,10,10,14,8,22,0.00,0,,292
2011-11-17,37,32,26,18,12,3,64,48,26,30.23,30.19,30.14,10,10,10,18,8,26,0.00,0,,246
2011-11-18,53,38,23,19,14,5,69,38,16,30.19,30.06,29.90,10,10,10,28,12,34,0.00,0,,169
2011-11-19,55,50,44,46,31,18,72,50,32,29.94,29.85,29.74,10,10,10,23,14,33,0.00,7,,171
2011-11-20,53,45,37,43,34,32,81,72,61,30.29,30.16,29.91,10,10,10,16,9,25,0.00,3,,330
2011-11-21,48,42,35,37,33,30,87,74,58,30.31,30.25,30.19,10,10,10,13,7,17,0.00,1,,32
2011-11-22,42,40,39,37,35,34,87,79,76,30.18,29.97,29.81,10,6,4,15,9,22,0.21,8,Rain,21
2011-11-23,46,39,32,36,33,30,93,79,62,30.22,30.16,30.03,10,7,2,8,3,,0.00,1,,262
2011-11-24,46,42,37,43,37,34,87,82,81,30.24,30.19,30.10,7,4,2,14,8,20,0.00,6,,182
2011-11-25,57,47,37,45,39,34,87,75,63,30.07,29.97,29.88,10,8,5,17,11,28,0.00,0,,175
2011-11-26,59,54,50,52,47,43,88,76,67,29.91,29.85,29.75,10,8,3,18,12,24,0.40,6,Rain,171
2011-11-27,42,38,35,37,34,30,87,84,81,30.09,29.93,29.79,10,8,2,13,8,25,0.02,8,,301
2011-11-28,41,36,32,32,30,28,87,78,70,30.15,30.08,29.99,10,10,10,17,8,22,0.00,7,,346
2011-11-29,44,38,32,34,30,23,81,71,60,30.01,29.90,29.84,10,10,10,28,16,41,0.00,6,,346
2011-11-30,41,32,23,25,19,10,86,63,29,30.13,30.06,29.98,10,10,10,9,4,,0.00,0,,264